createdAt,value
2023-01-19T00:00:55.656Z,70.40
2023-01-19T00:03:23.494Z,70.40
2023-01-19T00:05:51.350Z,70.50
2023-01-19T00:08:18.766Z,70.50
2023-01-19T00:10:51.102Z,70.50
2023-01-19T00:13:18.265Z,70.60
2023-01-19T00:15:45.959Z,70.60
2023-01-19T00:18:12.979Z,70.60
2023-01-19T00:20:41.873Z,70.60
2023-01-19T00:23:09.403Z,70.70
2023-01-19T00:25:42.574Z,70.70
2023-01-19T00:28:15.514Z,70.70
2023-01-19T00:30:44.520Z,70.80
2023-01-19T00:33:16.027Z,70.80
2023-01-19T00:35:43.751Z,70.60
2023-01-19T00:38:13.691Z,70.40
2023-01-19T00:40:40.800Z,70.30
2023-01-19T00:43:08.047Z,70.30
2023-01-19T00:45:35.747Z,70.20
2023-01-19T00:48:03.100Z,70.20
2023-01-19T00:50:32.034Z,70.20
2023-01-19T00:53:03.812Z,70.40
2023-01-19T00:55:33.266Z,71.40
2023-01-19T00:58:00.383Z,70.60
2023-01-19T01:00:27.525Z,70.60
2023-01-19T01:02:55.000Z,71.40
2023-01-19T01:05:22.409Z,70.90
2023-01-19T01:07:49.821Z,70.90
2023-01-19T01:10:24.936Z,70.90
2023-01-19T01:12:54.873Z,70.90
2023-01-19T01:15:26.453Z,70.80
2023-01-19T01:17:54.233Z,70.80
2023-01-19T01:20:27.977Z,70.90
2023-01-19T01:22:56.674Z,70.80
2023-01-19T01:25:26.311Z,70.80
2023-01-19T01:27:54.280Z,71.00
2023-01-19T01:30:22.154Z,70.90
2023-01-19T01:32:49.528Z,71.00
2023-01-19T01:35:17.229Z,70.80
2023-01-19T01:37:44.633Z,71.00
2023-01-19T01:40:17.623Z,72.10
2023-01-19T01:42:45.688Z,71.10
2023-01-19T01:45:29.931Z,71.20
2023-01-19T01:48:02.276Z,71.30
2023-01-19T01:50:33.026Z,71.30
2023-01-19T01:53:07.981Z,71.30
2023-01-19T01:55:46.908Z,71.40
2023-01-19T01:58:16.297Z,71.60
2023-01-19T02:01:02.341Z,71.80
2023-01-19T02:03:29.735Z,71.90
2023-01-19T02:06:00.885Z,71.80
2023-01-19T02:09:00.764Z,72.00
2023-01-19T02:11:48.253Z,72.10
2023-01-19T02:14:15.383Z,72.10
2023-01-19T02:16:42.955Z,72.40
2023-01-19T02:19:17.520Z,72.30
2023-01-19T02:22:11.806Z,72.50
2023-01-19T02:24:39.191Z,72.40
2023-01-19T02:27:08.245Z,72.50
2023-01-19T02:29:35.709Z,72.70
2023-01-19T02:32:03.171Z,73.00
2023-01-19T02:34:30.701Z,73.00
2023-01-19T02:36:59.302Z,73.20
2023-01-19T02:39:39.382Z,73.10
2023-01-19T02:42:32.486Z,73.20
2023-01-19T02:44:59.999Z,73.80
2023-01-19T02:47:26.976Z,74.60
2023-01-19T02:50:00.943Z,73.60
2023-01-19T02:52:28.573Z,73.60
2023-01-19T02:55:05.736Z,73.50
2023-01-19T02:57:43.643Z,73.70
2023-01-19T03:00:28.812Z,73.70
2023-01-19T03:03:40.292Z,74.00
2023-01-19T03:06:24.268Z,74.50
2023-01-19T03:09:04.617Z,74.60
2023-01-19T03:11:39.769Z,74.90
2023-01-19T03:14:18.142Z,75.00
2023-01-19T03:16:55.625Z,74.90
2023-01-19T03:19:34.106Z,74.70
2023-01-19T03:22:06.607Z,74.40
2023-01-19T03:24:40.003Z,74.50
2023-01-19T03:27:15.065Z,74.30
2023-01-19T03:29:48.878Z,74.20
2023-01-19T03:32:19.643Z,74.30
2023-01-19T03:34:48.824Z,74.30
2023-01-19T03:37:17.878Z,75.10
2023-01-19T03:39:45.359Z,74.20
2023-01-19T03:42:16.267Z,74.10
2023-01-19T03:44:45.591Z,74.20
2023-01-19T03:47:15.143Z,74.20
2023-01-19T03:49:45.544Z,74.00
2023-01-19T03:52:12.861Z,74.00
2023-01-19T03:54:41.011Z,74.10
2023-01-19T03:57:08.315Z,74.20
2023-01-19T03:59:35.609Z,74.30
2023-01-19T04:02:03.019Z,74.30
2023-01-19T04:04:30.214Z,74.00
2023-01-19T04:06:57.762Z,74.10
2023-01-19T04:09:25.742Z,74.30
2023-01-19T04:11:53.051Z,74.30
2023-01-19T04:14:20.681Z,74.20
2023-01-19T04:16:47.758Z,74.10
2023-01-19T04:19:14.922Z,74.20
2023-01-19T04:21:42.246Z,74.10
2023-01-19T04:24:10.679Z,74.10
2023-01-19T04:26:37.732Z,74.00
2023-01-19T04:29:05.602Z,73.90
2023-01-19T04:31:33.017Z,74.00
2023-01-19T04:34:00.095Z,74.10
2023-01-19T04:36:27.575Z,73.90
2023-01-19T04:38:54.849Z,74.00
2023-01-19T04:41:22.125Z,74.00
2023-01-19T04:43:49.412Z,73.90
2023-01-19T04:46:16.495Z,73.90
2023-01-19T04:48:43.598Z,73.80
2023-01-19T04:51:10.577Z,73.80
2023-01-19T04:53:37.625Z,73.80
2023-01-19T04:56:04.990Z,73.80
2023-01-19T04:58:31.992Z,73.90
2023-01-19T05:00:59.525Z,73.80
2023-01-19T05:03:26.997Z,73.80
2023-01-19T05:05:54.352Z,73.80
2023-01-19T05:08:21.687Z,73.80
2023-01-19T05:10:48.578Z,73.80
2023-01-19T05:13:15.645Z,73.60
2023-01-19T05:15:42.779Z,73.60
2023-01-19T05:18:09.837Z,73.60
2023-01-19T05:20:36.772Z,73.60
2023-01-19T05:23:04.058Z,73.70
2023-01-19T05:25:31.200Z,73.70
2023-01-19T05:27:58.315Z,73.70
2023-01-19T05:30:25.434Z,73.60
2023-01-19T05:32:52.486Z,73.60
2023-01-19T05:35:27.764Z,73.70
2023-01-19T05:37:58.790Z,73.80
2023-01-19T05:40:26.144Z,73.80
2023-01-19T05:42:53.267Z,73.90
2023-01-19T05:45:20.373Z,73.80
2023-01-19T05:47:47.639Z,73.80
2023-01-19T05:50:14.817Z,73.80
2023-01-19T05:52:41.847Z,73.70
2023-01-19T05:55:09.411Z,73.70
2023-01-19T05:57:36.439Z,73.60
2023-01-19T06:00:05.409Z,73.70
2023-01-19T06:02:36.170Z,73.60
2023-01-19T06:05:04.466Z,73.60
2023-01-19T06:07:31.999Z,73.60
2023-01-19T06:09:59.289Z,73.60
2023-01-19T06:12:26.937Z,73.60
2023-01-19T06:14:53.962Z,73.60
2023-01-19T06:17:21.011Z,73.60
2023-01-19T06:19:48.131Z,74.40
2023-01-19T06:22:15.311Z,73.50
2023-01-19T06:24:42.476Z,73.40
2023-01-19T06:27:09.576Z,73.40
2023-01-19T06:29:36.589Z,73.30
2023-01-19T06:32:04.002Z,73.30
2023-01-19T06:34:31.067Z,73.20
2023-01-19T06:36:59.127Z,73.20
2023-01-19T06:39:27.459Z,73.20
2023-01-19T06:41:54.788Z,73.20
2023-01-19T06:44:22.555Z,73.20
2023-01-19T06:46:49.603Z,73.30
2023-01-19T06:49:16.602Z,73.20
2023-01-19T06:51:43.647Z,73.20
2023-01-19T06:54:10.902Z,73.30
2023-01-19T06:56:37.884Z,73.30
2023-01-19T06:59:05.967Z,73.40
2023-01-19T07:01:33.341Z,73.40
2023-01-19T07:04:00.401Z,73.50
2023-01-19T07:06:27.586Z,73.60
2023-01-19T07:08:54.822Z,73.50
2023-01-19T07:11:30.514Z,73.50
2023-01-19T07:13:57.640Z,73.50
2023-01-19T07:16:25.007Z,73.50
2023-01-19T07:18:52.078Z,73.50
2023-01-19T07:21:19.437Z,73.50
2023-01-19T07:23:52.587Z,73.50
2023-01-19T07:26:21.383Z,73.60
2023-01-19T07:28:48.960Z,73.60
2023-01-19T07:31:16.909Z,73.50
2023-01-19T07:33:44.702Z,73.60
2023-01-19T07:36:12.141Z,73.50
2023-01-19T07:38:39.051Z,73.50
2023-01-19T07:41:09.752Z,73.50
2023-01-19T07:43:36.937Z,73.50
2023-01-19T07:46:06.508Z,73.70
2023-01-19T07:48:33.568Z,74.50
2023-01-19T07:51:10.394Z,73.50
2023-01-19T07:53:39.963Z,73.40
2023-01-19T07:56:07.963Z,73.40
2023-01-19T07:58:35.047Z,74.30
2023-01-19T08:01:10.383Z,73.40
2023-01-19T08:03:37.893Z,73.20
2023-01-19T08:06:05.757Z,73.30
2023-01-19T08:08:34.415Z,73.30
2023-01-19T08:11:01.357Z,73.20
2023-01-19T08:13:28.341Z,73.20
2023-01-19T08:15:55.307Z,73.20
2023-01-19T08:18:22.478Z,73.00
2023-01-19T08:20:49.510Z,72.90
2023-01-19T08:23:18.024Z,72.60
2023-01-19T08:25:45.882Z,72.50
2023-01-19T08:28:15.561Z,72.70
2023-01-19T08:30:44.827Z,72.30
2023-01-19T08:33:14.441Z,72.50
2023-01-19T08:35:47.157Z,72.40
2023-01-19T08:38:14.614Z,72.30
2023-01-19T08:40:42.482Z,72.30
2023-01-19T08:43:14.656Z,72.30
2023-01-19T08:45:48.080Z,72.90
2023-01-19T08:48:23.339Z,72.10
2023-01-19T08:50:51.806Z,71.60
2023-01-19T08:53:23.067Z,71.30
2023-01-19T08:55:55.342Z,71.30
2023-01-19T08:58:22.339Z,69.70
2023-01-19T09:00:52.445Z,69.30
2023-01-19T09:03:22.549Z,69.90
2023-01-19T09:05:49.695Z,69.80
2023-01-19T09:08:16.885Z,69.60
2023-01-19T09:10:49.737Z,69.50
2023-01-19T09:13:18.738Z,69.50
2023-01-19T09:15:46.332Z,69.70
2023-01-19T09:18:17.615Z,69.70
2023-01-19T09:20:47.861Z,69.60
2023-01-19T09:23:18.183Z,69.40
2023-01-19T09:25:47.167Z,69.10
2023-01-19T09:28:17.600Z,67.80
2023-01-19T09:30:45.255Z,68.40
2023-01-19T09:33:17.653Z,68.90
2023-01-19T09:35:47.378Z,68.40
2023-01-19T09:38:16.707Z,68.90
2023-01-19T09:40:49.848Z,68.90
2023-01-19T09:43:58.340Z,68.80
2023-01-19T09:46:41.421Z,68.80
2023-01-19T09:49:27.588Z,67.60
2023-01-19T09:51:55.135Z,67.60
2023-01-19T09:54:47.964Z,67.80
2023-01-19T09:57:15.086Z,66.40
2023-01-19T09:59:43.886Z,66.50
2023-01-19T10:02:46.474Z,67.10
2023-01-19T10:05:30.816Z,66.70
2023-01-19T10:08:10.310Z,65.30
2023-01-19T10:10:40.767Z,64.20
2023-01-19T10:13:42.435Z,65.50
2023-01-19T10:17:06.752Z,64.20
2023-01-19T10:19:42.349Z,63.10
2023-01-19T10:22:28.523Z,64.40
2023-01-19T10:24:59.403Z,63.20
2023-01-19T10:27:32.047Z,64.10
2023-01-19T10:30:00.829Z,63.30
2023-01-19T10:32:39.065Z,63.80
2023-01-19T10:35:23.423Z,63.50
2023-01-19T10:37:58.559Z,64.20
2023-01-19T10:40:43.122Z,64.50
2023-01-19T10:43:34.844Z,64.10
2023-01-19T10:46:22.949Z,64.00
2023-01-19T10:48:52.621Z,64.70
2023-01-19T10:51:20.694Z,64.30
2023-01-19T10:53:58.487Z,65.10
2023-01-19T10:56:34.362Z,64.50
2023-01-19T10:59:04.882Z,64.90
2023-01-19T11:01:36.845Z,65.20
2023-01-19T11:04:28.817Z,65.40
2023-01-19T11:07:27.296Z,65.00
2023-01-19T11:10:16.199Z,64.90
2023-01-19T11:12:52.351Z,65.30
2023-01-19T11:15:24.811Z,65.60
2023-01-19T11:17:53.610Z,65.10
2023-01-19T11:20:26.308Z,65.00
2023-01-19T11:23:29.115Z,65.10
2023-01-19T11:26:01.570Z,65.40
2023-01-19T11:28:38.039Z,65.10
2023-01-19T11:31:11.086Z,65.20
2023-01-19T11:33:52.268Z,65.20
2023-01-19T11:36:24.361Z,65.20
2023-01-19T11:38:57.617Z,65.60
2023-01-19T11:41:37.318Z,65.60
2023-01-19T11:44:29.961Z,65.60
2023-01-19T11:47:06.765Z,64.80
2023-01-19T11:49:57.664Z,65.00
2023-01-19T11:52:34.845Z,64.50
2023-01-19T11:55:23.490Z,64.60
2023-01-19T11:57:54.409Z,65.30
2023-01-19T12:00:43.653Z,64.70
2023-01-19T12:03:41.384Z,64.80
2023-01-19T12:06:29.947Z,64.00
2023-01-19T12:09:17.694Z,64.20
2023-01-19T12:11:53.527Z,64.00
2023-01-19T12:14:35.347Z,64.00
2023-01-19T12:17:06.036Z,64.60
2023-01-19T12:20:27.314Z,63.90
2023-01-19T12:23:36.060Z,64.00
2023-01-19T12:26:38.147Z,64.70
2023-01-19T12:29:21.743Z,63.70
2023-01-19T12:32:13.456Z,63.70
2023-01-19T12:34:46.511Z,63.60
2023-01-19T12:37:31.235Z,63.80
2023-01-19T12:40:03.984Z,63.80
2023-01-19T12:42:31.533Z,63.80
2023-01-19T12:45:14.216Z,63.70
2023-01-19T12:47:53.065Z,62.80
2023-01-19T12:50:24.151Z,63.00
2023-01-19T12:52:57.365Z,62.40
2023-01-19T12:55:31.133Z,62.60
2023-01-19T12:58:07.831Z,62.20
2023-01-19T13:00:38.443Z,62.60
2023-01-19T13:03:25.423Z,62.40
2023-01-19T13:05:57.339Z,61.40
2023-01-19T13:08:28.231Z,61.70
2023-01-19T13:11:07.848Z,62.10
2023-01-19T13:13:38.420Z,62.30
2023-01-19T13:16:20.986Z,62.70
2023-01-19T13:19:14.967Z,61.90
2023-01-19T13:21:48.308Z,62.30
2023-01-19T13:24:24.122Z,62.20
2023-01-19T13:26:51.531Z,62.40
2023-01-19T13:29:38.141Z,62.10
2023-01-19T13:32:13.848Z,62.40
2023-01-19T13:34:48.896Z,62.40
2023-01-19T13:37:21.236Z,62.70
2023-01-19T13:39:51.887Z,62.20
2023-01-19T13:42:29.982Z,62.10
2023-01-19T13:45:02.058Z,62.00
2023-01-19T13:47:45.476Z,62.00
2023-01-19T13:50:39.470Z,62.30
2023-01-19T13:53:21.232Z,62.70
2023-01-19T13:55:48.716Z,62.60
2023-01-19T13:58:23.711Z,62.90
2023-01-19T14:00:50.817Z,63.00
2023-01-19T14:03:24.173Z,62.80
2023-01-19T14:05:54.998Z,63.20
2023-01-19T14:08:23.027Z,63.20
2023-01-19T14:11:00.069Z,63.20
2023-01-19T14:13:31.332Z,63.40
2023-01-19T14:16:25.383Z,63.40
2023-01-19T14:19:04.519Z,63.40
2023-01-19T14:21:40.778Z,63.20
2023-01-19T14:24:19.896Z,63.00
2023-01-19T14:27:18.988Z,63.50
2023-01-19T14:29:49.928Z,63.60
2023-01-19T14:32:21.692Z,63.60
2023-01-19T14:35:13.439Z,63.80
2023-01-19T14:37:49.861Z,63.60
2023-01-19T14:40:20.874Z,63.70
2023-01-19T14:42:57.550Z,64.00
2023-01-19T14:45:36.077Z,63.90
2023-01-19T14:48:18.177Z,64.10
2023-01-19T14:51:02.041Z,64.20
2023-01-19T14:53:36.750Z,64.40
2023-01-19T14:56:06.408Z,64.60
2023-01-19T14:58:35.942Z,64.70
2023-01-19T15:01:04.610Z,64.80
2023-01-19T15:03:44.193Z,64.80
2023-01-19T15:06:19.653Z,64.90
2023-01-19T15:08:49.953Z,64.90
2023-01-19T15:11:22.679Z,64.80
2023-01-19T15:13:51.133Z,65.00
2023-01-19T15:16:19.204Z,65.00
2023-01-19T15:18:46.423Z,65.00
2023-01-19T15:21:23.825Z,65.00
2023-01-19T15:23:50.996Z,65.10
2023-01-19T15:26:21.174Z,65.10
2023-01-19T15:28:49.224Z,65.00
2023-01-19T15:31:22.508Z,65.00
2023-01-19T15:33:50.171Z,65.10
2023-01-19T15:36:21.828Z,65.10
2023-01-19T15:38:51.015Z,65.10
2023-01-19T15:41:27.432Z,65.20
2023-01-19T15:43:54.749Z,65.20
2023-01-19T15:46:23.728Z,65.20
2023-01-19T15:48:51.566Z,65.20
2023-01-19T15:51:21.826Z,65.20
2023-01-19T15:53:50.580Z,65.20
2023-01-19T15:56:24.489Z,65.20
2023-01-19T15:58:53.498Z,65.30
2023-01-19T16:01:23.844Z,65.20
2023-01-19T16:03:51.246Z,65.20
2023-01-19T16:06:18.678Z,65.20
2023-01-19T16:08:45.791Z,65.30
2023-01-19T16:11:15.535Z,65.30
2023-01-19T16:13:46.248Z,65.30
2023-01-19T16:16:20.513Z,65.30
2023-01-19T16:18:48.171Z,65.30
2023-01-19T16:21:15.645Z,65.30
2023-01-19T16:23:42.763Z,65.50
2023-01-19T16:26:34.883Z,65.40
2023-01-19T16:29:10.708Z,65.50
2023-01-19T16:31:39.307Z,65.60
2023-01-19T16:34:06.678Z,65.60
2023-01-19T16:36:37.500Z,65.60
2023-01-19T16:39:09.297Z,65.70
2023-01-19T16:41:36.855Z,65.70
2023-01-19T16:44:04.621Z,65.70
2023-01-19T16:46:35.586Z,65.70
2023-01-19T16:49:13.102Z,65.70
2023-01-19T16:51:40.220Z,65.70
2023-01-19T16:54:07.333Z,65.80
2023-01-19T16:56:34.501Z,65.80
2023-01-19T16:59:01.465Z,65.90
2023-01-19T17:01:29.519Z,66.00
2023-01-19T17:03:56.934Z,65.90
2023-01-19T17:06:24.983Z,65.90
2023-01-19T17:08:53.209Z,65.90
2023-01-19T17:11:24.835Z,66.00
2023-01-19T17:14:16.277Z,66.00
2023-01-19T17:16:44.518Z,66.00
2023-01-19T17:19:17.290Z,66.00
2023-01-19T17:21:49.402Z,66.10
2023-01-19T17:24:17.340Z,66.10
2023-01-19T17:26:45.940Z,66.10
2023-01-19T17:29:13.357Z,66.10
2023-01-19T17:31:40.670Z,66.20
2023-01-19T17:34:09.555Z,66.10
2023-01-19T17:36:36.659Z,66.20
2023-01-19T17:39:08.899Z,66.20
2023-01-19T17:41:36.329Z,66.20
2023-01-19T17:44:05.558Z,66.10
2023-01-19T17:46:37.347Z,66.30
2023-01-19T17:49:07.068Z,66.30
2023-01-19T17:51:34.651Z,66.30
2023-01-19T17:54:02.105Z,66.30
2023-01-19T17:56:33.461Z,66.40
2023-01-19T17:59:00.467Z,66.50
2023-01-19T18:01:30.927Z,66.40
2023-01-19T18:03:59.070Z,66.40
2023-01-19T18:06:26.156Z,66.50
2023-01-19T18:08:53.436Z,66.50
2023-01-19T18:11:21.714Z,66.60
2023-01-19T18:13:50.472Z,67.10
2023-01-19T18:16:25.592Z,67.00
2023-01-19T18:18:54.696Z,66.90
2023-01-19T18:21:23.955Z,67.90
2023-01-19T18:23:51.770Z,66.90
2023-01-19T18:26:21.862Z,67.00
2023-01-19T18:28:49.638Z,67.30
2023-01-19T18:31:18.941Z,67.30
2023-01-19T18:33:48.121Z,67.30
2023-01-19T18:36:16.677Z,67.30
2023-01-19T18:38:45.176Z,67.30
2023-01-19T18:41:18.250Z,67.20
2023-01-19T18:43:46.599Z,67.30
2023-01-19T18:46:15.160Z,67.40
2023-01-19T18:48:42.463Z,67.50
2023-01-19T18:51:13.041Z,67.40
2023-01-19T18:53:40.967Z,67.50
2023-01-19T18:56:11.811Z,67.60
2023-01-19T18:58:39.257Z,67.70
2023-01-19T19:01:18.280Z,67.70
2023-01-19T19:03:45.376Z,68.00
2023-01-19T19:06:12.787Z,67.80
2023-01-19T19:08:40.012Z,67.70
2023-01-19T19:11:08.458Z,67.70
2023-01-19T19:13:35.588Z,67.60
2023-01-19T19:16:05.812Z,67.70
2023-01-19T19:18:35.641Z,67.60
2023-01-19T19:21:12.165Z,67.60
2023-01-19T19:23:39.383Z,67.70
2023-01-19T19:26:10.054Z,67.50
2023-01-19T19:28:40.539Z,67.70
2023-01-19T19:31:11.996Z,67.60
2023-01-19T19:33:40.336Z,67.70
2023-01-19T19:36:09.256Z,67.70
2023-01-19T19:38:36.876Z,67.70
2023-01-19T19:41:16.209Z,67.80
2023-01-19T19:43:43.266Z,68.00
2023-01-19T19:46:14.642Z,67.90
2023-01-19T19:48:42.448Z,67.90
2023-01-19T19:51:18.862Z,68.10
2023-01-19T19:53:49.579Z,69.00
2023-01-19T19:56:21.149Z,68.00
2023-01-19T19:58:50.137Z,68.10
2023-01-19T20:01:28.066Z,68.30
2023-01-19T20:03:58.720Z,68.30
2023-01-19T20:06:27.406Z,68.40
2023-01-19T20:08:56.352Z,68.30
2023-01-19T20:11:28.188Z,68.40
2023-01-19T20:13:55.435Z,68.30
2023-01-19T20:16:23.695Z,68.40
2023-01-19T20:18:54.248Z,68.60
2023-01-19T20:21:28.469Z,68.50
2023-01-19T20:24:00.229Z,68.50
2023-01-19T20:26:31.414Z,68.40
2023-01-19T20:29:11.916Z,68.60
2023-01-19T20:31:52.764Z,68.50
2023-01-19T20:34:26.246Z,68.30
2023-01-19T20:36:54.222Z,68.40
2023-01-19T20:39:23.558Z,68.20
2023-01-19T20:41:52.470Z,68.20
2023-01-19T20:44:25.181Z,68.10
2023-01-19T20:46:53.573Z,68.50
2023-01-19T20:49:20.911Z,68.60
2023-01-19T20:51:48.283Z,68.80
2023-01-19T20:54:18.768Z,68.80
2023-01-19T20:56:45.877Z,68.70
2023-01-19T20:59:13.428Z,69.60
2023-01-19T21:01:41.735Z,68.80
2023-01-19T21:04:11.190Z,68.70
2023-01-19T21:06:39.215Z,68.80
2023-01-19T21:09:07.206Z,68.90
2023-01-19T21:11:35.677Z,68.90
2023-01-19T21:14:02.992Z,69.10
2023-01-19T21:16:33.659Z,68.90
2023-01-19T21:19:01.223Z,68.70
2023-01-19T21:21:31.497Z,68.80
2023-01-19T21:24:01.272Z,69.10
2023-01-19T21:26:30.137Z,69.00
2023-01-19T21:29:01.687Z,69.00
2023-01-19T21:31:29.176Z,69.00
2023-01-19T21:33:57.721Z,69.20
2023-01-19T21:36:25.024Z,69.60
2023-01-19T21:38:52.425Z,69.60
2023-01-19T21:41:20.110Z,69.60
2023-01-19T21:43:47.614Z,69.60
2023-01-19T21:46:28.920Z,69.50
2023-01-19T21:48:58.251Z,69.50
2023-01-19T21:51:25.869Z,69.50
2023-01-19T21:53:54.990Z,69.50
2023-01-19T21:56:22.974Z,69.50
2023-01-19T21:58:49.953Z,69.40
2023-01-19T22:01:17.146Z,69.40
2023-01-19T22:03:44.357Z,69.40
2023-01-19T22:06:14.293Z,69.30
2023-01-19T22:08:42.379Z,69.40
2023-01-19T22:11:12.728Z,69.30
2023-01-19T22:13:41.198Z,69.30
2023-01-19T22:16:12.170Z,69.20
2023-01-19T22:18:44.146Z,69.20
2023-01-19T22:21:21.290Z,69.20
2023-01-19T22:23:51.145Z,69.20
2023-01-19T22:26:19.007Z,69.10
2023-01-19T22:28:46.576Z,69.60
2023-01-19T22:31:17.296Z,69.50
2023-01-19T22:33:45.114Z,69.40
2023-01-19T22:36:27.235Z,69.30
2023-01-19T22:38:56.612Z,69.60
2023-01-19T22:41:34.349Z,69.30
2023-01-19T22:44:05.587Z,69.40
2023-01-19T22:46:35.431Z,69.60
2023-01-19T22:49:03.395Z,69.60
2023-01-19T22:51:32.529Z,69.60
2023-01-19T22:53:59.929Z,69.80
2023-01-19T22:56:29.920Z,69.80
2023-01-19T22:58:58.631Z,70.10
2023-01-19T23:01:35.057Z,70.10
2023-01-19T23:04:04.450Z,70.00
2023-01-19T23:06:34.801Z,69.70
2023-01-19T23:09:06.042Z,69.70
2023-01-19T23:11:37.850Z,69.90
2023-01-19T23:14:11.497Z,69.80
2023-01-19T23:16:38.571Z,69.80
2023-01-19T23:19:06.410Z,69.80
2023-01-19T23:21:33.969Z,69.80
2023-01-19T23:24:03.600Z,70.00
2023-01-19T23:26:38.239Z,69.90
2023-01-19T23:29:10.534Z,69.80
2023-01-19T23:31:40.009Z,70.60
2023-01-19T23:34:10.445Z,70.00
2023-01-19T23:36:40.256Z,70.50
2023-01-19T23:39:13.252Z,70.20
2023-01-19T23:41:40.492Z,70.20
2023-01-19T23:44:07.809Z,70.50
2023-01-19T23:46:35.037Z,70.30
2023-01-19T23:49:02.075Z,70.30
2023-01-19T23:51:31.436Z,70.50
2023-01-19T23:54:00.108Z,70.40
2023-01-19T23:56:33.600Z,70.50
2023-01-19T23:59:08.323Z,70.60
